createdAt,value
2018-03-08T04:01:14.969Z,3.60
2018-03-08T04:03:43.287Z,3.50
2018-03-08T04:06:11.587Z,3.30
2018-03-08T04:08:40.691Z,3.20
2018-03-08T04:11:08.987Z,3.10
2018-03-08T04:13:38.076Z,3.10
2018-03-08T04:16:07.138Z,3.00
2018-03-08T04:18:35.477Z,3.00
2018-03-08T04:21:03.782Z,3.30
2018-03-08T04:23:32.110Z,3.20
2018-03-08T04:26:01.171Z,3.20
2018-03-08T04:28:29.504Z,3.20
2018-03-08T04:30:57.798Z,3.20
2018-03-08T04:33:26.122Z,3.00
2018-03-08T04:35:55.190Z,2.80
2018-03-08T04:38:23.506Z,2.80
2018-03-08T04:40:52.573Z,2.80
2018-03-08T04:43:20.900Z,2.80
2018-03-08T04:45:49.214Z,2.90
2018-03-08T04:48:17.548Z,3.00
2018-03-08T04:50:45.838Z,3.00
2018-03-08T04:53:14.162Z,2.90
2018-03-08T04:55:42.483Z,2.90
2018-03-08T04:58:10.807Z,2.80
2018-03-08T05:00:39.104Z,2.70
2018-03-08T05:03:08.193Z,2.60
2018-03-08T05:05:36.491Z,2.60
2018-03-08T05:08:05.579Z,2.60
2018-03-08T05:10:34.641Z,2.40
2018-03-08T05:13:02.943Z,2.40
2018-03-08T05:15:32.087Z,2.40
2018-03-08T05:18:00.390Z,2.40
2018-03-08T05:20:28.714Z,2.60
2018-03-08T05:22:57.783Z,2.70
2018-03-08T05:25:26.106Z,2.70
2018-03-08T05:27:54.426Z,2.80
2018-03-08T05:30:22.801Z,2.80
2018-03-08T05:32:51.068Z,2.70
2018-03-08T05:35:19.402Z,2.80
2018-03-08T05:37:47.699Z,2.70
2018-03-08T05:40:16.023Z,2.60
2018-03-08T05:42:44.327Z,2.50
2018-03-08T05:45:13.407Z,2.60
2018-03-08T05:47:42.480Z,2.60
2018-03-08T05:50:10.793Z,2.60
2018-03-08T05:52:39.859Z,2.70
2018-03-08T05:55:08.174Z,2.60
2018-03-08T05:57:36.474Z,2.70
2018-03-08T06:00:05.252Z,2.70
2018-03-08T06:02:33.555Z,2.80
2018-03-08T06:05:01.871Z,2.90
2018-03-08T06:07:30.159Z,2.80
2018-03-08T06:09:59.246Z,2.90
2018-03-08T06:12:27.552Z,2.90
2018-03-08T06:14:55.870Z,3.00
2018-03-08T06:17:24.934Z,3.30
2018-03-08T06:19:53.255Z,3.30
2018-03-08T06:22:21.558Z,3.40
2018-03-08T06:24:50.647Z,3.50
2018-03-08T06:27:19.716Z,3.40
2018-03-08T06:29:48.048Z,3.40
2018-03-08T06:32:16.341Z,3.30
2018-03-08T06:34:44.658Z,3.40
2018-03-08T06:37:12.959Z,3.60
2018-03-08T06:39:42.038Z,3.50
2018-03-08T06:42:10.340Z,3.50
2018-03-08T06:44:38.663Z,3.50
2018-03-08T06:47:06.960Z,3.40
2018-03-08T06:49:35.303Z,3.40
2018-03-08T06:52:03.626Z,3.40
2018-03-08T06:54:31.906Z,3.30
2018-03-08T06:57:00.197Z,3.30
2018-03-08T06:59:29.283Z,3.50
2018-03-08T07:01:57.578Z,3.50
2018-03-08T07:04:26.662Z,3.60
2018-03-08T07:06:55.714Z,3.60
2018-03-08T07:09:24.033Z,3.60
2018-03-08T07:11:52.315Z,3.70
2018-03-08T07:14:21.400Z,3.90
2018-03-08T07:16:49.687Z,3.90
2018-03-08T07:19:18.773Z,4.00
2018-03-08T07:21:47.064Z,4.00
2018-03-08T07:24:16.134Z,4.20
2018-03-08T07:26:44.450Z,4.10
2018-03-08T07:29:12.764Z,4.20
2018-03-08T07:31:41.066Z,4.20
2018-03-08T07:34:09.379Z,4.30
2018-03-08T07:36:37.723Z,4.30
2018-03-08T07:39:06.043Z,4.10
2018-03-08T07:41:34.331Z,4.20
2018-03-08T07:44:02.648Z,4.30
2018-03-08T07:46:30.965Z,4.50
2018-03-08T07:49:00.025Z,4.30
2018-03-08T07:51:28.335Z,4.30
2018-03-08T07:53:57.395Z,4.50
2018-03-08T07:56:25.702Z,4.40
2018-03-08T07:58:54.759Z,4.60
2018-03-08T08:01:23.066Z,4.60
2018-03-08T08:03:52.128Z,4.80
2018-03-08T08:06:32.977Z,4.80
2018-03-08T08:09:12.098Z,4.80
2018-03-08T08:11:40.407Z,4.80
2018-03-08T08:14:08.691Z,4.80
2018-03-08T08:16:36.995Z,4.90
2018-03-08T08:19:05.278Z,4.90
2018-03-08T08:21:34.352Z,5.20
2018-03-08T08:24:02.635Z,5.10
2018-03-08T08:26:30.955Z,5.30
2018-03-08T08:28:59.234Z,5.20
2018-03-08T08:31:27.543Z,5.30
2018-03-08T08:33:55.827Z,5.50
2018-03-08T08:36:24.130Z,5.60
2018-03-08T08:38:53.191Z,5.70
2018-03-08T08:41:21.501Z,5.70
2018-03-08T08:43:50.558Z,5.80
2018-03-08T08:46:18.864Z,5.80
2018-03-08T08:48:47.154Z,6.00
2018-03-08T08:51:16.228Z,6.10
2018-03-08T08:53:44.515Z,6.00
2018-03-08T08:56:12.828Z,6.10
2018-03-08T08:58:41.113Z,6.40
2018-03-08T09:01:09.415Z,6.30
2018-03-08T09:03:37.714Z,6.50
2018-03-08T09:06:06.023Z,6.60
2018-03-08T09:08:35.075Z,6.50
2018-03-08T09:11:03.387Z,6.50
2018-03-08T09:13:32.447Z,6.40
2018-03-08T09:16:00.754Z,6.30
2018-03-08T09:18:29.803Z,6.30
2018-03-08T09:20:58.992Z,6.30
2018-03-08T09:23:27.306Z,6.40
2018-03-08T09:25:55.619Z,6.30
2018-03-08T09:28:23.902Z,6.50
2018-03-08T09:30:52.232Z,6.40
2018-03-08T09:33:20.519Z,6.50
2018-03-08T09:35:48.813Z,6.70
2018-03-08T09:38:17.886Z,7.00
2018-03-08T09:40:46.171Z,7.00
2018-03-08T09:43:14.480Z,6.90
2018-03-08T09:45:42.775Z,7.00
2018-03-08T09:48:11.088Z,7.10
2018-03-08T09:50:39.379Z,7.30
2018-03-08T09:53:07.689Z,7.40
2018-03-08T09:55:35.971Z,7.40
2018-03-08T09:58:04.273Z,7.50
2018-03-08T10:00:32.563Z,7.70
2018-03-08T10:03:00.870Z,7.90
2018-03-08T10:05:29.150Z,7.80
2018-03-08T10:07:57.455Z,8.00
2018-03-08T10:10:25.743Z,8.00
2018-03-08T10:12:54.067Z,8.00
2018-03-08T10:15:22.357Z,8.30
2018-03-08T10:17:51.431Z,8.30
2018-03-08T10:20:19.718Z,8.30
2018-03-08T10:22:48.057Z,8.50
2018-03-08T10:25:16.322Z,8.50
2018-03-08T10:27:44.636Z,8.50
2018-03-08T10:30:12.923Z,8.50
2018-03-08T10:32:41.214Z,8.50
2018-03-08T10:35:10.295Z,8.60
2018-03-08T10:37:38.583Z,8.60
2018-03-08T10:40:06.900Z,8.60
2018-03-08T10:45:03.506Z,8.70
2018-03-08T10:47:31.782Z,8.60
2018-03-08T10:50:00.103Z,8.80
2018-03-08T10:52:28.382Z,8.80
2018-03-08T10:54:56.690Z,8.60
2018-03-08T10:57:24.972Z,8.60
2018-03-08T10:59:53.279Z,8.60
2018-03-08T11:05:24.530Z,8.70
2018-03-08T11:07:52.818Z,8.70
2018-03-08T11:10:21.122Z,9.00
2018-03-08T11:12:49.407Z,9.30
2018-03-08T11:15:17.723Z,9.10
2018-03-08T11:17:45.998Z,9.00
2018-03-08T11:20:14.302Z,9.40
2018-03-08T11:22:42.622Z,9.80
2018-03-08T11:25:10.935Z,9.80
2018-03-08T11:27:39.226Z,10.10
2018-03-08T11:30:07.556Z,10.20
2018-03-08T11:32:35.843Z,9.90
2018-03-08T11:35:04.151Z,9.70
2018-03-08T11:37:32.444Z,9.70
2018-03-08T11:40:00.746Z,9.60
2018-03-08T11:42:30.559Z,9.60
2018-03-08T11:44:58.519Z,9.60
2018-03-08T11:47:25.654Z,9.80
2018-03-08T11:49:53.965Z,9.80
2018-03-08T11:52:22.252Z,9.80
2018-03-08T11:54:50.636Z,9.60
2018-03-08T11:57:18.867Z,9.70
2018-03-08T11:59:47.165Z,9.60
2018-03-08T12:02:15.450Z,9.60
2018-03-08T12:04:43.759Z,9.70
2018-03-08T12:07:12.050Z,9.60
2018-03-08T12:09:40.351Z,9.70
2018-03-08T12:12:08.630Z,9.60
2018-03-08T12:14:37.726Z,9.50
2018-03-08T12:17:06.051Z,9.50
2018-03-08T12:19:35.089Z,9.50
2018-03-08T12:22:03.377Z,9.50
2018-03-08T12:24:32.447Z,9.50
2018-03-08T12:27:00.729Z,9.50
2018-03-08T12:29:29.043Z,9.50
2018-03-08T12:31:58.090Z,9.60
2018-03-08T12:34:26.403Z,9.60
2018-03-08T12:36:55.464Z,10.20
2018-03-08T12:39:23.770Z,10.20
2018-03-08T12:41:52.822Z,10.10
2018-03-08T12:44:21.135Z,10.10
2018-03-08T12:46:49.422Z,10.10
2018-03-08T12:49:18.502Z,10.00
2018-03-08T12:51:46.842Z,10.00
2018-03-08T12:54:15.114Z,9.90
2018-03-08T12:56:43.399Z,9.90
2018-03-08T12:59:11.710Z,10.00
2018-03-08T13:01:40.008Z,9.90
2018-03-08T13:04:09.074Z,9.90
2018-03-08T13:06:37.359Z,9.80
2018-03-08T13:09:05.667Z,9.90
2018-03-08T13:11:34.003Z,9.90
2018-03-08T13:14:02.275Z,9.90
2018-03-08T13:16:30.557Z,9.90
2018-03-08T13:18:58.837Z,10.00
2018-03-08T13:21:27.156Z,10.10
2018-03-08T13:23:55.443Z,10.10
2018-03-08T13:26:23.757Z,10.20
2018-03-08T13:28:52.047Z,10.40
2018-03-08T13:31:20.354Z,10.50
2018-03-08T13:33:49.416Z,10.80
2018-03-08T13:36:17.722Z,10.70
2018-03-08T13:38:46.780Z,11.00
2018-03-08T13:41:15.091Z,11.00
2018-03-08T13:43:44.137Z,11.00
2018-03-08T13:46:12.451Z,11.00
2018-03-08T13:48:40.744Z,10.80
2018-03-08T13:51:09.821Z,11.00
2018-03-08T13:53:38.107Z,11.00
2018-03-08T13:56:07.243Z,11.20
2018-03-08T13:58:36.268Z,11.20
2018-03-08T14:01:05.355Z,11.10
2018-03-08T14:03:33.648Z,11.10
2018-03-08T14:06:01.958Z,11.30
2018-03-08T14:08:31.045Z,11.20
2018-03-08T14:10:59.350Z,11.20
2018-03-08T14:13:27.637Z,11.20
2018-03-08T14:15:55.970Z,11.10
2018-03-08T14:18:25.031Z,11.00
2018-03-08T14:20:53.351Z,11.00
2018-03-08T14:23:22.406Z,11.10
2018-03-08T14:25:50.728Z,11.10
2018-03-08T14:28:19.787Z,10.90
2018-03-08T14:30:48.104Z,10.90
2018-03-08T14:33:17.156Z,10.70
2018-03-08T14:35:45.474Z,10.70
2018-03-08T14:38:14.532Z,10.90
2018-03-08T14:40:42.826Z,10.90
2018-03-08T14:43:11.147Z,10.60
2018-03-08T14:45:39.439Z,10.60
2018-03-08T14:48:07.764Z,10.60
2018-03-08T14:50:36.051Z,10.60
2018-03-08T14:53:05.139Z,10.50
2018-03-08T14:55:33.432Z,10.50
2018-03-08T14:58:01.747Z,10.60
2018-03-08T15:00:30.038Z,10.60
2018-03-08T15:02:58.351Z,10.50
2018-03-08T15:05:27.402Z,10.60
2018-03-08T15:07:55.714Z,10.60
2018-03-08T15:10:24.009Z,10.60
2018-03-08T15:12:52.335Z,10.60
2018-03-08T15:15:20.627Z,10.60
2018-03-08T15:17:48.947Z,10.60
2018-03-08T15:20:18.070Z,10.60
2018-03-08T15:22:46.389Z,10.60
2018-03-08T15:25:14.675Z,10.60
2018-03-08T15:27:43.007Z,10.60
2018-03-08T15:30:11.318Z,10.60
2018-03-08T15:32:39.618Z,10.50
2018-03-08T15:35:08.703Z,10.60
2018-03-08T15:37:36.990Z,10.60
2018-03-08T15:40:06.138Z,10.40
2018-03-08T15:42:35.152Z,10.40
2018-03-08T15:45:03.471Z,10.40
2018-03-08T15:47:32.519Z,10.40
2018-03-08T15:50:00.840Z,10.40
2018-03-08T15:52:29.895Z,10.40
2018-03-08T15:54:58.202Z,10.40
2018-03-08T15:57:27.258Z,10.40
2018-03-08T15:59:55.583Z,10.40
2018-03-08T16:02:26.508Z,10.40
2018-03-08T16:04:55.892Z,10.40
2018-03-08T16:07:46.692Z,10.40
2018-03-08T16:10:36.172Z,10.40
2018-03-08T16:13:04.500Z,10.30
2018-03-08T16:15:32.792Z,10.30
2018-03-08T16:18:01.082Z,10.30
2018-03-08T16:20:29.402Z,10.30
2018-03-08T16:22:57.692Z,10.30
2018-03-08T16:25:26.779Z,10.20
2018-03-08T16:27:55.072Z,10.20
2018-03-08T16:30:25.144Z,10.10
2018-03-08T16:32:53.442Z,10.10
2018-03-08T16:35:21.802Z,10.20
2018-03-08T16:37:50.095Z,10.20
2018-03-08T16:40:18.411Z,10.10
2018-03-08T16:42:46.698Z,10.00
2018-03-08T16:45:15.008Z,10.00
2018-03-08T16:47:43.303Z,10.00
2018-03-08T16:50:11.619Z,10.00
2018-03-08T16:52:39.911Z,9.90
2018-03-08T16:55:08.221Z,9.90
2018-03-08T16:57:36.523Z,9.90
2018-03-08T17:00:05.594Z,9.80
2018-03-08T17:02:33.883Z,9.80
2018-03-08T17:05:02.224Z,9.90
2018-03-08T17:07:30.504Z,9.90
2018-03-08T17:09:59.434Z,9.80
2018-03-08T17:12:27.723Z,9.70
2018-03-08T17:14:56.795Z,9.60
2018-03-08T17:17:25.107Z,9.60
2018-03-08T17:19:54.181Z,9.50
2018-03-08T17:22:22.466Z,9.50
2018-03-08T17:24:51.534Z,9.40
2018-03-08T17:27:19.819Z,9.40
2018-03-08T17:29:48.140Z,9.40
2018-03-08T17:32:16.433Z,9.40
2018-03-08T17:34:44.740Z,9.40
2018-03-08T17:37:13.023Z,9.40
2018-03-08T17:39:41.326Z,9.30
2018-03-08T17:42:10.374Z,9.30
2018-03-08T17:44:38.742Z,9.30
2018-03-08T17:47:07.132Z,9.30
2018-03-08T17:49:35.479Z,9.20
2018-03-08T17:52:03.826Z,9.20
2018-03-08T17:54:33.112Z,9.20
2018-03-08T17:57:07.164Z,9.20
2018-03-08T17:59:37.242Z,9.30
2018-03-08T18:02:10.236Z,9.30
2018-03-08T18:04:39.463Z,9.20
2018-03-08T19:28:42.187Z,9.60
2018-03-08T19:31:12.238Z,9.70
2018-03-08T19:33:40.523Z,9.70
2018-03-08T19:36:08.835Z,9.80
2018-03-08T19:38:37.125Z,9.80
2018-03-08T19:41:05.417Z,9.90
2018-03-08T19:43:34.467Z,9.60
2018-03-08T19:46:02.774Z,9.60
2018-03-08T19:48:31.071Z,9.50
2018-03-08T19:50:59.464Z,9.10
2018-03-08T19:53:27.710Z,8.90
2018-03-08T19:55:55.998Z,8.40
2018-03-08T19:58:25.062Z,8.00
2018-03-08T20:00:53.349Z,8.00
2018-03-08T20:03:21.723Z,7.70
2018-03-08T20:05:50.018Z,7.60
2018-03-08T20:08:19.260Z,7.40
2018-03-08T20:10:47.543Z,7.30
2018-03-08T20:13:15.846Z,7.20
2018-03-08T20:15:44.181Z,7.00
2018-03-08T20:18:12.610Z,6.80
2018-03-08T20:20:40.890Z,6.80
2018-03-08T20:23:09.203Z,6.70
2018-03-08T20:25:37.484Z,6.70
2018-03-08T20:28:05.792Z,6.50
2018-03-08T20:30:34.089Z,6.30
2018-03-08T20:33:02.394Z,6.10
2018-03-08T20:35:31.443Z,5.70
2018-03-08T20:37:59.771Z,5.70
2018-03-08T20:40:28.923Z,5.40
2018-03-08T20:42:57.247Z,5.40
2018-03-08T20:45:26.295Z,5.40
2018-03-08T20:47:54.576Z,5.40
2018-03-08T20:50:22.904Z,5.50
2018-03-08T20:52:51.188Z,5.50
2018-03-08T20:55:19.520Z,5.30
2018-03-08T20:57:47.798Z,5.30
2018-03-08T21:00:16.113Z,5.30
2018-03-08T21:02:45.160Z,5.30
2018-03-08T21:05:13.473Z,5.30
2018-03-08T21:07:42.520Z,5.40
2018-03-08T21:10:10.822Z,5.40
2018-03-08T21:12:39.118Z,5.40
2018-03-08T21:15:08.194Z,5.30
2018-03-08T21:17:36.478Z,5.30
2018-03-08T21:20:04.789Z,5.50
2018-03-08T21:22:33.074Z,5.50
2018-03-08T21:25:01.391Z,5.40
2018-03-08T21:27:29.674Z,5.20
2018-03-08T21:29:57.950Z,5.10
2018-03-08T21:32:26.256Z,4.90
2018-03-08T21:34:55.306Z,4.80
2018-03-08T21:39:54.439Z,4.90
2018-03-08T21:42:24.254Z,4.70
2018-03-08T21:44:52.550Z,4.70
2018-03-08T21:47:21.630Z,4.80
2018-03-08T21:49:49.906Z,4.80
2018-03-08T21:52:18.218Z,4.80
2018-03-08T21:54:46.510Z,4.80
2018-03-08T21:57:14.827Z,4.70
2018-03-08T21:59:43.119Z,4.60
2018-03-08T22:02:11.435Z,4.50
2018-03-08T22:04:39.715Z,4.50
2018-03-08T22:07:08.023Z,4.60
2018-03-08T22:09:36.311Z,4.50
2018-03-08T22:12:04.667Z,4.50
2018-03-08T22:14:33.679Z,4.40
2018-03-08T22:17:01.990Z,4.40
2018-03-08T22:19:31.103Z,4.40
2018-03-08T22:21:59.425Z,4.40
2018-03-08T22:24:27.703Z,4.40
2018-03-08T22:26:56.015Z,4.30
2018-03-08T22:29:24.299Z,4.30
2018-03-08T22:31:53.370Z,4.20
2018-03-08T22:34:21.646Z,4.20
2018-03-08T22:36:49.951Z,4.30
2018-03-08T22:39:19.004Z,4.10
2018-03-08T22:41:47.312Z,4.10
2018-03-08T22:44:16.366Z,3.90
2018-03-08T22:46:44.698Z,3.80
2018-03-08T22:49:13.746Z,3.90
2018-03-08T22:51:42.798Z,3.90
2018-03-08T22:54:11.102Z,3.90
2018-03-08T22:56:39.395Z,3.90
2018-03-08T22:59:07.707Z,3.80
2018-03-08T23:04:52.475Z,3.60
2018-03-08T23:07:20.782Z,3.60
2018-03-08T23:09:49.831Z,3.40
2018-03-08T23:12:18.126Z,3.40
2018-03-08T23:14:46.435Z,3.40
2018-03-08T23:17:14.718Z,3.40
2018-03-08T23:19:43.034Z,3.40
2018-03-08T23:22:11.315Z,3.40
2018-03-08T23:24:39.640Z,3.40
2018-03-08T23:27:08.686Z,3.40
2018-03-08T23:29:37.001Z,3.40
2018-03-08T23:32:06.058Z,3.50
2018-03-08T23:34:34.363Z,3.40
2018-03-08T23:37:02.648Z,3.50
2018-03-08T23:39:31.725Z,3.40
2018-03-08T23:42:00.005Z,3.50
2018-03-08T23:44:28.314Z,3.40
2018-03-08T23:46:56.627Z,3.50
2018-03-08T23:49:24.907Z,3.50
